createdAt,value
2018-03-01T00:02:08.212Z,-6.90
2018-03-01T00:04:35.659Z,-6.90
2018-03-01T00:07:03.090Z,-6.90
2018-03-01T00:09:31.275Z,-7.00
2018-03-01T00:11:58.712Z,-7.00
2018-03-01T00:14:26.152Z,-6.90
2018-03-01T00:16:53.606Z,-7.00
2018-03-01T00:19:21.031Z,-7.00
2018-03-01T00:21:48.472Z,-7.10
2018-03-01T00:24:16.672Z,-7.10
2018-03-01T00:26:44.111Z,-7.10
2018-03-01T00:29:11.560Z,-7.00
2018-03-01T00:31:39.011Z,-7.00
2018-03-01T00:34:06.463Z,-7.00
2018-03-01T00:36:33.892Z,-7.00
2018-03-01T00:39:01.436Z,-7.10
2018-03-01T00:41:28.856Z,-7.10
2018-03-01T00:43:56.296Z,-7.10
2018-03-01T00:46:23.747Z,-7.10
2018-03-01T00:48:51.160Z,-7.20
2018-03-01T00:51:18.598Z,-7.20
2018-03-01T00:53:46.031Z,-7.30
2018-03-01T00:56:13.501Z,-7.30
2018-03-01T00:58:40.952Z,-7.30
2018-03-01T01:01:08.368Z,-7.30
2018-03-01T01:03:35.804Z,-7.40
2018-03-01T01:06:03.235Z,-7.40
2018-03-01T01:08:30.695Z,-7.50
2018-03-01T01:10:58.124Z,-7.50
2018-03-01T01:13:25.579Z,-7.60
2018-03-01T01:15:53.008Z,-7.60
2018-03-01T01:18:20.439Z,-7.60
2018-03-01T01:20:47.904Z,-7.50
2018-03-01T01:23:15.350Z,-7.60
2018-03-01T01:25:42.764Z,-7.70
2018-03-01T01:28:10.212Z,-7.70
2018-03-01T01:30:37.653Z,-7.80
2018-03-01T01:33:05.153Z,-7.80
2018-03-01T01:35:32.575Z,-7.70
2018-03-01T01:38:00.017Z,-7.70
2018-03-01T01:40:27.458Z,-7.80
2018-03-01T01:42:54.885Z,-7.80
2018-03-01T01:45:22.315Z,-7.80
2018-03-01T01:47:49.759Z,-7.90
2018-03-01T01:50:17.212Z,-7.90
2018-03-01T01:52:44.636Z,-7.90
2018-03-01T01:55:12.082Z,-7.90
2018-03-01T01:57:39.519Z,-7.90
2018-03-01T02:00:06.960Z,-8.00
2018-03-01T02:02:34.412Z,-8.00
2018-03-01T02:05:01.848Z,-8.00
2018-03-01T02:07:29.260Z,-8.00
2018-03-01T02:09:57.463Z,-8.00
2018-03-01T02:12:24.904Z,-8.00
2018-03-01T02:14:52.343Z,-7.90
2018-03-01T02:17:19.788Z,-7.90
2018-03-01T02:19:47.224Z,-7.90
2018-03-01T02:22:14.667Z,-7.90
2018-03-01T02:24:42.105Z,-7.90
2018-03-01T02:27:09.556Z,-7.90
2018-03-01T02:29:37.006Z,-7.90
2018-03-01T02:32:04.456Z,-7.90
2018-03-01T02:34:31.882Z,-7.80
2018-03-01T02:36:59.307Z,-7.80
2018-03-01T02:39:26.771Z,-7.80
2018-03-01T02:41:54.192Z,-7.80
2018-03-01T02:44:21.625Z,-7.80
2018-03-01T02:46:49.065Z,-7.90
2018-03-01T02:49:16.543Z,-7.90
2018-03-01T02:51:43.977Z,-7.90
2018-03-01T02:54:11.418Z,-8.00
2018-03-01T02:56:38.861Z,-7.90
2018-03-01T02:59:06.303Z,-7.90
2018-03-01T03:01:33.744Z,-8.00
2018-03-01T03:04:01.176Z,-8.00
2018-03-01T03:06:28.620Z,-8.00
2018-03-01T03:08:56.048Z,-8.00
2018-03-01T03:11:23.492Z,-8.00
2018-03-01T03:13:50.926Z,-8.00
2018-03-01T03:16:18.390Z,-8.00
2018-03-01T03:18:45.797Z,-8.00
2018-03-01T03:21:13.234Z,-7.90
2018-03-01T03:23:41.434Z,-8.00
2018-03-01T03:26:08.868Z,-8.00
2018-03-01T03:28:36.329Z,-8.00
2018-03-01T03:31:03.750Z,-8.00
2018-03-01T03:33:31.191Z,-8.00
2018-03-01T03:35:58.637Z,-8.00
2018-03-01T03:38:26.100Z,-8.00
2018-03-01T03:40:53.532Z,-8.00
2018-03-01T03:43:20.964Z,-7.90
2018-03-01T03:45:48.508Z,-7.90
2018-03-01T03:48:15.968Z,-7.90
2018-03-01T03:50:43.424Z,-7.90
2018-03-01T03:53:10.847Z,-8.00
2018-03-01T03:55:38.276Z,-7.90
2018-03-01T03:58:05.716Z,-8.00
2018-03-01T04:00:33.677Z,-8.10
2018-03-01T04:03:01.116Z,-8.00
2018-03-01T04:05:28.557Z,-8.00
2018-03-01T04:07:56.002Z,-7.90
2018-03-01T04:10:23.453Z,-7.90
2018-03-01T04:12:50.878Z,-8.00
2018-03-01T04:15:18.308Z,-7.90
2018-03-01T04:17:45.736Z,-7.90
2018-03-01T04:20:13.189Z,-7.80
2018-03-01T04:22:40.615Z,-7.70
2018-03-01T04:25:08.056Z,-7.70
2018-03-01T04:27:35.516Z,-7.70
2018-03-01T04:30:02.958Z,-7.60
2018-03-01T04:32:30.383Z,-7.70
2018-03-01T04:34:57.824Z,-7.70
2018-03-01T04:37:25.284Z,-7.70
2018-03-01T04:39:52.711Z,-7.70
2018-03-01T04:42:20.144Z,-7.70
2018-03-01T04:44:47.605Z,-7.60
2018-03-01T04:47:15.028Z,-7.70
2018-03-01T04:49:42.488Z,-7.70
2018-03-01T04:52:09.916Z,-7.80
2018-03-01T04:54:37.352Z,-7.70
2018-03-01T04:57:04.797Z,-7.70
2018-03-01T04:59:33.001Z,-7.60
2018-03-01T05:02:00.443Z,-7.70
2018-03-01T05:04:27.880Z,-7.60
2018-03-01T05:06:55.312Z,-7.60
2018-03-01T05:09:22.748Z,-7.60
2018-03-01T05:11:50.172Z,-7.60
2018-03-01T05:14:17.636Z,-7.60
2018-03-01T05:16:45.059Z,-7.50
2018-03-01T05:19:12.488Z,-7.50
2018-03-01T05:21:39.946Z,-7.50
2018-03-01T05:24:07.385Z,-7.40
2018-03-01T05:26:34.836Z,-7.40
2018-03-01T05:29:02.272Z,-7.40
2018-03-01T05:31:29.707Z,-7.30
2018-03-01T05:33:57.152Z,-7.30
2018-03-01T05:36:24.592Z,-7.30
2018-03-01T05:38:52.052Z,-7.40
2018-03-01T05:41:19.499Z,-7.40
2018-03-01T05:43:46.940Z,-7.40
2018-03-01T05:46:14.359Z,-7.50
2018-03-01T05:48:41.813Z,-7.50
2018-03-01T05:51:09.257Z,-7.50
2018-03-01T05:53:36.712Z,-7.50
2018-03-01T05:56:04.125Z,-7.50
2018-03-01T05:58:31.577Z,-7.50
2018-03-01T06:00:59.017Z,-7.40
2018-03-01T06:03:26.487Z,-7.40
2018-03-01T06:05:53.924Z,-7.30
2018-03-01T06:08:21.371Z,-7.40
2018-03-01T06:10:48.812Z,-7.40
2018-03-01T06:13:16.236Z,-7.40
2018-03-01T06:15:43.669Z,-6.80
2018-03-01T06:18:11.097Z,-6.60
2018-03-01T06:20:38.532Z,-6.30
2018-03-01T06:23:05.955Z,-6.30
2018-03-01T06:25:34.167Z,-6.80
2018-03-01T06:28:01.600Z,-6.80
2018-03-01T06:30:29.045Z,-6.90
2018-03-01T06:32:56.505Z,-7.00
2018-03-01T06:35:23.932Z,-7.00
2018-03-01T06:37:51.380Z,-7.00
2018-03-01T06:40:18.812Z,-7.00
2018-03-01T06:42:46.247Z,-7.00
2018-03-01T06:45:13.683Z,-7.00
2018-03-01T06:47:41.128Z,-7.00
2018-03-01T06:50:08.572Z,-6.90
2018-03-01T06:52:36.021Z,-6.90
2018-03-01T06:55:03.454Z,-6.90
2018-03-01T06:57:30.888Z,-6.80
2018-03-01T06:59:58.321Z,-6.80
2018-03-01T07:02:25.764Z,-6.80
2018-03-01T07:04:53.213Z,-6.70
2018-03-01T07:07:20.662Z,-6.60
2018-03-01T07:09:48.093Z,-6.60
2018-03-01T07:12:15.531Z,-6.50
2018-03-01T07:14:42.969Z,-6.60
2018-03-01T07:17:10.385Z,-6.50
2018-03-01T07:19:38.607Z,-6.40
2018-03-01T07:22:06.020Z,-6.40
2018-03-01T07:24:33.464Z,-6.40
2018-03-01T07:27:00.896Z,-6.40
2018-03-01T07:29:28.332Z,-6.40
2018-03-01T07:31:55.769Z,-6.40
2018-03-01T07:34:23.196Z,-6.30
2018-03-01T07:36:51.416Z,-6.30
2018-03-01T07:39:18.848Z,-6.30
2018-03-01T07:41:46.285Z,-6.30
2018-03-01T07:44:13.708Z,-6.20
2018-03-01T07:46:41.148Z,-6.10
2018-03-01T07:49:08.568Z,-6.10
2018-03-01T07:51:36.021Z,-6.10
2018-03-01T07:54:03.444Z,-6.20
2018-03-01T07:56:31.652Z,-6.00
2018-03-01T07:58:59.100Z,-6.00
2018-03-01T08:01:26.544Z,-5.80
2018-03-01T08:03:53.975Z,-5.70
2018-03-01T08:06:21.402Z,-5.80
2018-03-01T08:08:48.868Z,-5.70
2018-03-01T08:11:16.326Z,-5.50
2018-03-01T08:13:43.748Z,-5.40
2018-03-01T08:16:11.172Z,-5.30
2018-03-01T08:18:38.620Z,-5.20
2018-03-01T08:21:06.049Z,-5.00
2018-03-01T08:23:33.485Z,-5.00
2018-03-01T08:26:00.918Z,-4.80
2018-03-01T08:28:28.335Z,-4.80
2018-03-01T08:30:56.543Z,-4.70
2018-03-01T08:33:23.974Z,-4.70
2018-03-01T08:35:51.421Z,-4.60
2018-03-01T08:38:18.831Z,-4.70
2018-03-01T08:40:47.041Z,-4.50
2018-03-01T08:43:14.472Z,-4.50
2018-03-01T08:45:41.900Z,-4.40
2018-03-01T08:48:09.344Z,-4.40
2018-03-01T08:50:36.775Z,-4.30
2018-03-01T08:53:04.219Z,-4.30
2018-03-01T08:55:31.665Z,-4.20
2018-03-01T08:57:59.100Z,-4.10
2018-03-01T09:00:26.524Z,-4.10
2018-03-01T09:02:53.974Z,-4.20
2018-03-01T09:05:21.408Z,-4.10
2018-03-01T09:07:49.612Z,-3.90
2018-03-01T09:10:17.048Z,-3.90
2018-03-01T09:12:44.475Z,-3.80
2018-03-01T09:15:11.914Z,-3.70
2018-03-01T09:17:39.348Z,-3.60
2018-03-01T09:20:06.784Z,-3.80
2018-03-01T09:22:34.216Z,-3.60
2018-03-01T09:25:02.409Z,-3.30
2018-03-01T09:27:29.844Z,-3.30
2018-03-01T09:29:57.280Z,-3.40
2018-03-01T09:32:24.708Z,-3.40
2018-03-01T09:34:52.148Z,-3.60
2018-03-01T09:37:19.576Z,-3.60
2018-03-01T09:39:47.768Z,-3.40
2018-03-01T09:42:15.212Z,-3.40
2018-03-01T09:44:42.692Z,-3.20
2018-03-01T09:47:10.064Z,-2.90
2018-03-01T09:49:37.508Z,-2.50
2018-03-01T09:52:04.956Z,-2.20
2018-03-01T09:54:32.400Z,-2.00
2018-03-01T09:56:59.840Z,-1.90
2018-03-01T09:59:27.264Z,-1.60
2018-03-01T10:01:55.452Z,-1.90
2018-03-01T10:04:22.931Z,-1.90
2018-03-01T10:06:50.361Z,-1.80
2018-03-01T10:09:17.784Z,-1.70
2018-03-01T10:11:45.212Z,-1.60
2018-03-01T10:14:12.668Z,-1.40
2018-03-01T10:16:40.085Z,-1.50
2018-03-01T10:19:07.532Z,-1.50
2018-03-01T10:21:34.972Z,-1.50
2018-03-01T10:24:02.411Z,-1.60
2018-03-01T10:26:29.832Z,-1.80
2018-03-01T10:28:58.021Z,-1.70
2018-03-01T10:31:25.456Z,-1.70
2018-03-01T10:33:52.900Z,-1.80
2018-03-01T10:36:20.324Z,-2.00
2018-03-01T10:38:48.537Z,-1.60
2018-03-01T10:41:15.976Z,-1.60
2018-03-01T10:43:43.407Z,-1.50
2018-03-01T10:46:10.849Z,-1.10
2018-03-01T10:48:38.289Z,-1.00
2018-03-01T10:51:05.724Z,-0.80
2018-03-01T10:53:33.195Z,-0.90
2018-03-01T10:56:00.637Z,-0.60
2018-03-01T10:58:28.076Z,-0.50
2018-03-01T11:00:59.457Z,-0.30
2018-03-01T11:03:26.888Z,-0.10
2018-03-01T11:05:54.332Z,0.00
2018-03-01T11:08:22.526Z,-0.20
2018-03-01T11:10:49.953Z,-0.20
2018-03-01T11:13:17.392Z,-0.20
2018-03-01T11:15:44.867Z,-0.50
2018-03-01T11:18:12.309Z,-1.30
2018-03-01T11:20:39.773Z,-0.90
2018-03-01T11:23:07.197Z,-0.70
2018-03-01T11:25:34.644Z,0.10
2018-03-01T11:28:02.076Z,0.50
2018-03-01T11:30:29.522Z,0.20
2018-03-01T11:32:56.956Z,-0.50
2018-03-01T11:35:24.389Z,0.30
2018-03-01T11:37:51.828Z,0.80
2018-03-01T11:40:19.260Z,1.40
2018-03-01T11:42:46.716Z,1.60
2018-03-01T11:45:14.157Z,2.30
2018-03-01T11:47:41.593Z,2.70
2018-03-01T11:50:09.016Z,3.00
2018-03-01T11:52:36.440Z,3.40
2018-03-01T11:55:04.654Z,4.20
2018-03-01T11:57:32.076Z,4.10
2018-03-01T11:59:59.492Z,3.90
2018-03-01T12:02:26.920Z,3.80
2018-03-01T12:04:55.112Z,3.70
2018-03-01T12:07:22.536Z,3.70
2018-03-01T12:09:49.956Z,3.40
2018-03-01T12:12:18.165Z,3.40
2018-03-01T12:14:45.584Z,3.40
2018-03-01T12:17:13.024Z,3.30
2018-03-01T12:19:40.450Z,3.00
2018-03-01T12:22:08.652Z,2.60
2018-03-01T12:24:36.077Z,2.60
2018-03-01T12:27:03.511Z,2.70
2018-03-01T12:29:30.944Z,2.30
2018-03-01T12:31:58.378Z,2.40
2018-03-01T12:34:26.559Z,2.80
2018-03-01T12:36:53.994Z,2.80
2018-03-01T12:39:21.400Z,3.00
2018-03-01T12:41:49.595Z,3.10
2018-03-01T12:44:17.029Z,3.10
2018-03-01T12:46:44.448Z,2.70
2018-03-01T12:49:12.657Z,2.40
2018-03-01T12:51:40.094Z,2.30
2018-03-01T12:54:07.520Z,1.30
2018-03-01T12:56:34.940Z,1.10
2018-03-01T12:59:02.374Z,1.20
2018-03-01T13:01:29.783Z,0.90
2018-03-01T13:03:57.228Z,0.80
2018-03-01T13:06:24.664Z,0.40
2018-03-01T13:08:52.085Z,0.10
2018-03-01T13:11:19.536Z,-0.10
2018-03-01T13:13:46.961Z,-0.10
2018-03-01T13:16:14.414Z,-0.10
2018-03-01T13:18:41.841Z,-0.10
2018-03-01T13:21:09.268Z,-0.10
2018-03-01T13:23:36.692Z,0.00
2018-03-01T13:26:04.890Z,0.40
2018-03-01T13:28:32.309Z,0.30
2018-03-01T13:31:01.336Z,0.50
2018-03-01T13:33:32.420Z,0.80
2018-03-01T13:36:00.637Z,0.80
2018-03-01T13:38:28.065Z,1.10
2018-03-01T13:40:55.493Z,1.40
2018-03-01T13:43:23.353Z,1.50
2018-03-01T13:45:52.001Z,1.50
2018-03-01T13:48:19.437Z,1.60
2018-03-01T13:50:46.859Z,1.60
2018-03-01T13:53:14.292Z,1.50
2018-03-01T13:55:41.716Z,1.50
2018-03-01T13:58:09.916Z,1.30
2018-03-01T14:00:37.341Z,1.30
2018-03-01T14:03:04.771Z,1.40
2018-03-01T14:05:32.969Z,1.60
2018-03-01T14:08:00.388Z,1.60
2018-03-01T14:10:27.816Z,1.60
2018-03-01T14:16:05.228Z,1.30
2018-03-01T14:18:38.713Z,1.30
2018-03-01T14:24:18.221Z,1.30
2018-03-01T14:27:00.530Z,1.10
2018-03-01T14:29:31.373Z,0.70
2018-03-01T14:31:58.812Z,0.90
2018-03-01T14:34:26.229Z,0.90
2018-03-01T14:36:53.659Z,0.80
2018-03-01T14:39:21.080Z,0.90
2018-03-01T14:41:48.512Z,0.70
2018-03-01T14:44:16.713Z,0.60
2018-03-01T14:46:44.131Z,0.60
2018-03-01T14:49:11.561Z,0.70
2018-03-01T14:51:38.991Z,0.70
2018-03-01T14:54:07.196Z,0.80
2018-03-01T14:56:34.621Z,0.80
2018-03-01T14:59:02.050Z,0.90
2018-03-01T15:01:29.465Z,1.10
2018-03-01T15:03:57.686Z,1.00
2018-03-01T15:06:25.110Z,1.00
2018-03-01T15:08:52.557Z,1.00
2018-03-01T15:11:19.981Z,1.10
2018-03-01T15:13:47.400Z,1.10
2018-03-01T15:16:15.596Z,0.80
2018-03-01T15:18:43.020Z,0.80
2018-03-01T15:21:10.456Z,0.60
2018-03-01T15:23:37.880Z,0.40
2018-03-01T15:26:06.090Z,0.30
2018-03-01T15:28:33.507Z,0.20
2018-03-01T15:31:00.936Z,0.20
2018-03-01T15:33:28.364Z,0.20
2018-03-01T15:35:56.584Z,0.10
2018-03-01T15:38:24.012Z,0.10
2018-03-01T15:40:51.457Z,0.10
2018-03-01T15:43:18.876Z,-0.10
2018-03-01T15:45:46.304Z,-0.10
2018-03-01T15:48:13.749Z,-0.10
2018-03-01T15:50:41.199Z,-0.20
2018-03-01T15:53:08.616Z,-0.30
2018-03-01T15:55:36.824Z,-0.40
2018-03-01T15:58:04.258Z,-0.40
2018-03-01T16:00:31.694Z,-0.40
2018-03-01T16:02:59.124Z,-0.50
2018-03-01T16:05:26.557Z,-0.50
2018-03-01T16:07:53.982Z,-0.50
2018-03-01T16:10:22.181Z,-0.60
2018-03-01T16:12:49.660Z,-0.60
2018-03-01T16:15:17.108Z,-0.60
2018-03-01T16:17:44.623Z,-0.50
2018-03-01T16:20:12.071Z,-0.60
2018-03-01T16:22:39.496Z,-0.70
2018-03-01T16:25:06.920Z,-0.70
2018-03-01T16:27:34.343Z,-0.80
2018-03-01T16:30:01.788Z,-0.90
2018-03-01T16:32:29.232Z,-0.90
2018-03-01T16:34:56.669Z,-1.00
2018-03-01T16:37:24.100Z,-0.90
2018-03-01T16:39:52.306Z,-0.80
2018-03-01T16:42:19.749Z,-0.90
2018-03-01T16:44:47.182Z,-0.90
2018-03-01T16:47:14.628Z,-0.90
2018-03-01T16:49:42.061Z,-0.90
2018-03-01T16:52:09.494Z,-1.00
2018-03-01T16:54:36.926Z,-1.00
2018-03-01T16:57:04.360Z,-1.00
2018-03-01T16:59:31.808Z,-1.00
2018-03-01T17:01:59.239Z,-1.00
2018-03-01T17:04:26.675Z,-1.10
2018-03-01T17:06:54.880Z,-1.10
2018-03-01T17:09:22.307Z,-1.20
2018-03-01T17:11:49.768Z,-1.20
2018-03-01T17:14:17.194Z,-1.20
2018-03-01T17:16:44.644Z,-1.20
2018-03-01T17:19:12.092Z,-1.20
2018-03-01T17:21:39.544Z,-1.20
2018-03-01T17:24:06.973Z,-1.20
2018-03-01T17:26:34.413Z,-1.20
2018-03-01T17:29:01.857Z,-1.20
2018-03-01T17:31:29.297Z,-1.20
2018-03-01T17:33:56.736Z,-1.30
2018-03-01T17:36:24.181Z,-1.40
2018-03-01T17:38:51.624Z,-1.30
2018-03-01T17:41:19.064Z,-1.30
2018-03-01T17:43:46.501Z,-1.30
2018-03-01T17:46:13.957Z,-1.30
2018-03-01T17:48:41.384Z,-1.30
2018-03-01T17:51:08.825Z,-1.30
2018-03-01T17:53:36.248Z,-1.30
2018-03-01T17:56:03.679Z,-1.40
2018-03-01T17:58:31.113Z,-1.40
2018-03-01T18:00:58.547Z,-1.50
2018-03-01T18:03:26.005Z,-1.50
2018-03-01T18:05:53.431Z,-1.50
2018-03-01T18:08:21.631Z,-1.70
2018-03-01T18:10:49.084Z,-1.70
2018-03-01T18:13:16.528Z,-1.70
2018-03-01T18:15:43.978Z,-1.60
2018-03-01T18:18:11.413Z,-1.60
2018-03-01T18:20:38.841Z,-1.70
2018-03-01T18:23:06.286Z,-1.70
2018-03-01T18:25:33.722Z,-1.70
2018-03-01T18:28:01.185Z,-1.60
2018-03-01T18:30:28.625Z,-1.70
2018-03-01T18:32:56.052Z,-1.70
2018-03-01T18:35:23.489Z,-1.70
2018-03-01T18:37:50.928Z,-1.70
2018-03-01T18:40:18.384Z,-1.80
2018-03-01T18:42:45.821Z,-1.70
2018-03-01T18:45:13.276Z,-1.80
2018-03-01T18:47:40.741Z,-1.70
2018-03-01T18:50:08.128Z,-1.70
2018-03-01T18:52:35.560Z,-1.70
2018-03-01T18:55:03.027Z,-1.60
2018-03-01T18:57:30.441Z,-1.70
2018-03-01T18:59:57.888Z,-1.60
2018-03-01T19:02:25.328Z,-1.60
2018-03-01T19:04:52.762Z,-1.60
2018-03-01T19:07:20.225Z,-1.70
2018-03-01T19:09:48.296Z,-1.70
2018-03-01T19:12:15.751Z,-1.70
2018-03-01T19:14:43.211Z,-1.70
2018-03-01T19:17:10.680Z,-1.70
2018-03-01T19:19:38.117Z,-1.70
2018-03-01T19:22:05.553Z,-1.80
2018-03-01T19:24:33.764Z,-1.70
2018-03-01T19:27:01.217Z,-1.80
2018-03-01T19:29:28.656Z,-1.70
2018-03-01T19:31:56.077Z,-1.70
2018-03-01T19:34:23.519Z,-1.70
2018-03-01T19:36:50.960Z,-1.70
2018-03-01T19:39:18.388Z,-1.60
2018-03-01T19:41:45.820Z,-1.70
2018-03-01T19:44:14.217Z,-1.70
2018-03-01T19:46:41.663Z,-1.70
2018-03-01T19:49:09.090Z,-1.70
2018-03-01T19:51:36.543Z,-1.80
2018-03-01T19:54:03.977Z,-1.80
2018-03-01T19:56:31.436Z,-1.80
2018-03-01T19:58:58.893Z,-1.80
2018-03-01T20:01:26.356Z,-1.80
2018-03-01T20:03:54.549Z,-1.90
2018-03-01T20:06:21.980Z,-1.90
2018-03-01T20:08:49.413Z,-1.90
2018-03-01T20:11:16.870Z,-2.00
2018-03-01T20:13:44.305Z,-2.00
2018-03-01T20:16:11.719Z,-2.10
2018-03-01T20:18:39.936Z,-2.10
2018-03-01T20:21:07.383Z,-2.20
2018-03-01T20:23:34.828Z,-2.20
2018-03-01T20:26:02.257Z,-2.30
2018-03-01T20:28:29.696Z,-2.30
2018-03-01T20:30:57.128Z,-2.40
2018-03-01T20:33:24.560Z,-2.50
2018-03-01T20:35:52.027Z,-2.50
2018-03-01T20:38:19.472Z,-2.50
2018-03-01T20:40:46.912Z,-2.50
2018-03-01T20:43:14.364Z,-2.60
2018-03-01T20:45:41.819Z,-2.60
2018-03-01T20:48:09.285Z,-2.60
2018-03-01T20:50:37.504Z,-2.70
2018-03-01T20:53:04.965Z,-2.80
2018-03-01T20:55:33.927Z,-2.80
2018-03-01T20:58:01.364Z,-2.80
2018-03-01T21:00:28.827Z,-2.80
2018-03-01T21:02:56.295Z,-2.80
2018-03-01T21:05:24.492Z,-2.80
2018-03-01T21:07:51.947Z,-2.90
2018-03-01T21:10:19.412Z,-2.90
2018-03-01T21:12:46.839Z,-2.90
2018-03-01T21:15:15.074Z,-3.00
2018-03-01T21:17:42.505Z,-3.00
2018-03-01T21:20:09.969Z,-2.90
2018-03-01T21:22:37.428Z,-3.00
2018-03-01T21:25:04.876Z,-3.00
2018-03-01T21:27:32.328Z,-3.00
2018-03-01T21:30:00.369Z,-3.10
2018-03-01T21:32:27.827Z,-3.10
2018-03-01T21:34:55.257Z,-3.20
2018-03-01T21:37:22.698Z,-3.10
2018-03-01T21:39:50.948Z,-3.10
2018-03-01T21:42:18.595Z,-3.20
2018-03-01T21:44:46.097Z,-3.20
2018-03-01T21:47:13.506Z,-3.30
2018-03-01T21:49:41.740Z,-3.30
2018-03-01T21:52:09.176Z,-3.40
2018-03-01T21:54:36.627Z,-3.40
2018-03-01T21:57:04.065Z,-3.40
2018-03-01T21:59:31.524Z,-3.40
2018-03-01T22:01:58.952Z,-3.40
2018-03-01T22:04:26.391Z,-3.40
2018-03-01T22:06:53.832Z,-3.30
2018-03-01T22:09:21.272Z,-3.30
2018-03-01T22:11:48.723Z,-3.40
2018-03-01T22:14:16.160Z,-3.40
2018-03-01T22:16:43.597Z,-3.40
2018-03-01T22:19:11.037Z,-3.40
2018-03-01T22:21:38.475Z,-3.50
2018-03-01T22:24:05.929Z,-3.50
2018-03-01T22:26:33.375Z,-3.50
2018-03-01T22:29:00.821Z,-3.50
2018-03-01T22:31:28.245Z,-3.60
2018-03-01T22:33:55.700Z,-3.60
2018-03-01T22:36:23.150Z,-3.70
2018-03-01T22:38:50.588Z,-3.80
2018-03-01T22:41:18.039Z,-3.80
2018-03-01T22:43:45.483Z,-3.80
2018-03-01T22:46:12.905Z,-3.80
2018-03-01T22:48:40.340Z,-3.80
2018-03-01T22:51:07.792Z,-3.80
2018-03-01T22:53:35.325Z,-3.80
2018-03-01T22:56:02.775Z,-3.80
2018-03-01T22:58:30.199Z,-3.80
2018-03-01T23:00:57.648Z,-3.80
2018-03-01T23:03:25.084Z,-3.70
2018-03-01T23:05:52.544Z,-3.70
2018-03-01T23:08:20.080Z,-3.60
2018-03-01T23:10:47.524Z,-3.70
2018-03-01T23:13:14.971Z,-3.60
2018-03-01T23:15:42.432Z,-3.60
2018-03-01T23:18:10.657Z,-3.60
2018-03-01T23:20:38.097Z,-3.60
2018-03-01T23:23:05.529Z,-3.60
2018-03-01T23:25:32.956Z,-3.60
2018-03-01T23:28:00.389Z,-3.60
2018-03-01T23:30:27.832Z,-3.60
2018-03-01T23:32:55.289Z,-3.70
2018-03-01T23:35:22.742Z,-3.70
2018-03-01T23:37:50.164Z,-3.70
2018-03-01T23:40:17.600Z,-3.70
2018-03-01T23:42:45.029Z,-3.80
2018-03-01T23:45:12.470Z,-3.80
2018-03-01T23:47:39.916Z,-3.80
2018-03-01T23:50:07.359Z,-3.90
2018-03-01T23:52:34.788Z,-3.90
2018-03-01T23:55:03.000Z,-4.00
2018-03-01T23:57:30.445Z,-4.10
2018-03-01T23:59:57.882Z,-4.10
